EDT,Max TemperatureF,Mean TemperatureF,Min TemperatureF,Max Dew PointF,MeanDew PointF,Min DewpointF,Max Humidity, Mean Humidity, Min Humidity, Max Sea Level PressureIn, Mean Sea Level PressureIn, Min Sea Level PressureIn, Max VisibilityMiles, Mean VisibilityMiles, Min VisibilityMiles, Max Wind SpeedMPH, Mean Wind SpeedMPH, Max Gust SpeedMPH,PrecipitationIn, CloudCover, Events, WindDirDegrees
2013-9-1,81,70,59,66,62,57,97,78,58,29.91,29.86,29.79,10,4,0,13,2,22,T,5,Fog-Rain,146
2013-9-2,79,68,57,67,63,57,90,76,62,29.88,29.82,29.76,10,6,0,16,5,35,0.72,7,Fog-Rain,253
2013-9-3,62,59,55,56,55,52,93,83,72,30.03,29.94,29.81,10,8,2,14,7,21,0.07,7,Rain,281
2013-9-4,74,65,55,55,53,50,93,70,46,30.10,30.05,30.02,10,9,5,15,8,23,0.00,4,,276
2013-9-5,67,54,41,53,45,37,86,63,40,30.24,30.12,30.00,10,10,10,17,8,24,0.01,3,,320
2013-9-6,70,52,34,45,36,30,89,57,25,30.32,30.25,30.15,10,10,10,9,1,13,0.00,0,,102
2013-9-7,74,58,41,57,48,38,89,61,33,30.15,30.05,29.95,10,9,5,13,3,16,0.07,4,Rain,246
2013-9-8,70,58,45,61,55,43,93,69,44,30.13,30.00,29.91,10,7,0,15,6,20,0.00,6,Fog,330
2013-9-9,73,56,39,59,50,35,90,71,52,30.17,30.13,30.09,10,7,2,13,6,18,0.19,4,Rain,155
2013-9-10,88,75,62,71,67,58,87,71,55,30.13,30.08,30.03,8,6,2,14,6,21,T,2,,215
2013-9-11,87,77,67,71,67,64,90,76,61,30.18,30.09,30.00,8,6,2,16,6,22,T,4,Rain-Thunderstorm,181
2013-9-12,75,65,54,66,61,51,93,81,69,30.06,29.89,29.76,10,4,0,22,5,27,0.24,5,Fog-Rain-Thunderstorm,263
2013-9-13,59,53,46,53,46,42,93,80,66,30.02,29.90,29.77,10,10,9,18,9,23,0.01,7,,327
2013-9-14,62,49,36,42,39,31,89,61,32,30.19,30.09,30.01,10,9,2,14,5,18,0.03,5,Rain,329
2013-9-15,65,50,34,48,39,29,89,65,40,30.22,30.16,30.10,10,10,10,9,3,13,0.02,1,Rain,181
2013-9-16,67,54,41,51,47,37,89,71,52,30.35,30.20,30.09,10,8,0,21,6,25,0.06,6,Fog-Rain,342
2013-9-17,66,49,31,40,32,26,85,58,30,30.46,30.39,30.33,10,8,1,14,4,18,0.00,1,,135
2013-9-18,74,55,35,47,41,30,85,60,35,30.32,30.24,30.16,10,10,10,12,3,17,0.00,0,,147
2013-9-19,73,58,43,54,48,37,86,68,49,30.18,30.12,30.07,10,7,0,13,3,18,0.00,3,,187
2013-9-20,80,64,48,61,52,44,86,70,54,30.09,30.03,29.85,10,4,0,15,6,20,0.00,4,Fog,157
2013-9-21,68,61,54,61,55,48,84,76,68,29.89,29.74,29.67,10,6,0,15,7,20,1.11,7,Rain,285
2013-9-22,57,53,48,48,42,38,83,69,55,30.03,29.89,29.78,10,10,10,20,8,24,T,8,,320
2013-9-23,61,50,38,39,37,35,79,61,42,30.14,30.10,30.02,10,10,3,13,5,17,0.00,4,,346
2013-9-24,71,52,33,45,37,27,82,55,28,30.15,30.09,30.01,10,9,2,10,3,14,0.00,0,,332
2013-9-25,74,57,39,44,37,32,79,52,25,30.03,30.00,29.95,10,8,1,10,2,14,0.00,1,,43
2013-9-26,68,58,47,49,40,32,86,64,42,30.16,30.06,29.99,10,6,0,9,3,,0.00,1,,53
2013-9-27,69,54,38,48,42,37,100,73,45,30.26,30.21,30.16,10,7,1,13,4,17,0.00,1,,332
2013-9-28,66,53,39,51,43,37,100,76,52,30.32,30.27,30.21,10,4,0,14,4,20,0.00,2,Fog,142
2013-9-29,69,56,42,49,45,40,96,70,44,30.19,30.13,30.05,10,8,0,13,5,18,0.00,2,Fog,154
2013-9-30,70,57,44,55,50,42,93,73,53,30.07,30.04,29.99,10,8,2,12,3,18,0.00,4,,190